Time;durP1;ratioP1;P1;durP2;ratioP2;P2;SDS_P1;SDS_P2;PMS_P1;PMS_P2;Temp;Humidity;BMP_temperature;BMP_pressure;BME280_temperature;BME280_humidity;BME280_pressure;Samples;Min_cycle;Max_cycle;Signal;HPM_P1;HPM_P2
2020/12/21 00:00:31;;;;;;;92.08;44.50;;;;;;;-0.43;74.25;101121.67;2135100;81;27583;-67
2020/12/21 00:03:35;;;;;;;99.60;44.90;;;;;;;-0.42;74.55;101118.17;2189020;81;27645;-67
2020/12/21 00:06:38;;;;;;;99.65;45.38;;;;;;;-0.42;74.36;101129.60;2191122;79;31254;-67
2020/12/21 00:09:40;;;;;;;110.92;49.13;;;;;;;-0.43;74.28;101126.94;2226386;79;33105;-67
2020/12/21 00:12:44;;;;;;;119.62;48.83;;;;;;;-0.46;74.20;101126.48;2228100;79;29224;-67
2020/12/21 00:15:46;;;;;;;129.07;53.03;;;;;;;-0.48;74.32;101133.48;2228488;79;27693;-67
2020/12/21 00:18:48;;;;;;;113.52;51.20;;;;;;;-0.50;74.29;101129.53;2228185;79;29858;-66
2020/12/21 00:21:53;;;;;;;141.15;57.95;;;;;;;-0.52;74.21;101135.21;2196128;79;31133;-67
2020/12/21 00:24:55;;;;;;;123.73;50.37;;;;;;;-0.53;74.13;101136.49;2189110;81;33958;-67
2020/12/21 00:27:57;;;;;;;140.43;57.58;;;;;;;-0.55;74.18;101140.86;2188946;81;29174;-67
2020/12/21 00:30:59;;;;;;;130.27;54.08;;;;;;;-0.57;74.45;101142.17;2189071;81;27783;-67
2020/12/21 00:34:04;;;;;;;134.65;58.00;;;;;;;-0.58;74.25;101144.80;2189098;81;29338;-66
2020/12/21 00:37:06;;;;;;;132.72;54.08;;;;;;;-0.58;74.18;101140.86;2210831;77;32119;-67
2020/12/21 00:40:09;;;;;;;134.63;55.23;;;;;;;-0.63;74.12;101140.37;2194842;79;33875;-66
2020/12/21 00:43:11;;;;;;;120.50;50.88;;;;;;;-0.64;74.00;101153.07;2228083;79;29172;-67
2020/12/21 00:46:22;;;;;;;134.32;55.10;;;;;;;-0.67;74.01;101152.17;2228213;79;27606;-67
2020/12/21 00:49:24;;;;;;;115.82;52.00;;;;;;;-0.71;73.94;101155.63;2227805;79;28866;-68
2020/12/21 00:52:26;;;;;;;117.93;49.85;;;;;;;-0.74;74.00;101156.90;2227497;78;31070;-67
2020/12/21 00:55:29;;;;;;;110.35;47.03;;;;;;;-0.77;74.02;101159.08;2226062;80;33107;-67
2020/12/21 00:58:33;;;;;;;106.25;48.50;;;;;;;-0.79;74.04;101159.48;2226121;80;28354;-67
2020/12/21 01:01:35;;;;;;;110.52;47.95;;;;;;;-0.80;74.01;101172.19;2203637;80;27674;-68
2020/12/21 01:04:37;;;;;;;96.67;42.23;;;;;;;-0.83;74.03;101173.05;2189474;79;29783;-67
2020/12/21 01:07:40;;;;;;;98.42;42.03;;;;;;;-0.84;73.98;101167.75;2190923;79;31130;-68
2020/12/21 01:10:42;;;;;;;97.70;42.90;;;;;;;-0.85;74.02;101164.67;2196918;79;33113;-68
2020/12/21 01:13:49;;;;;;;89.40;41.83;;;;;;;-0.85;74.00;101168.61;2193309;80;30115;-67
2020/12/21 01:16:53;;;;;;;92.80;44.83;;;;;;;-0.87;73.98;101167.30;2227765;79;27700;-67
2020/12/21 01:19:55;;;;;;;100.55;42.98;;;;;;;-0.88;73.97;101169.89;2228359;79;28862;-66
2020/12/21 01:22:58;;;;;;;86.42;42.55;;;;;;;-0.89;74.00;101166.39;2227221;79;32023;-67
2020/12/21 01:26:00;;;;;;;84.50;39.70;;;;;;;-0.90;73.93;101172.52;2225563;79;33939;-67
2020/12/21 01:29:02;;;;;;;78.97;37.75;;;;;;;-0.93;73.90;101170.74;2227785;79;28394;-68
2020/12/21 01:32:04;;;;;;;78.28;37.03;;;;;;;-0.92;74.04;101167.66;2228259;79;27677;-67
2020/12/21 01:35:07;;;;;;;80.07;37.35;;;;;;;-0.93;73.99;101161.53;2227777;79;28820;-67
2020/12/21 01:38:09;;;;;;;78.10;35.60;;;;;;;-0.95;73.87;101167.20;2227159;79;32483;-67
2020/12/21 01:41:11;;;;;;;72.72;35.33;;;;;;;-0.96;73.93;101166.75;2226001;79;33146;-66
2020/12/21 01:44:14;;;;;;;71.07;35.68;;;;;;;-0.96;73.83;101166.75;2225909;80;29169;-67
2020/12/21 01:47:18;;;;;;;60.78;29.92;;;;;;;-0.96;73.79;101168.06;2215548;79;27769;-67
2020/12/21 01:50:20;;;;;;;64.92;29.95;;;;;;;-0.98;73.77;101164.53;2227249;79;28786;-67
2020/12/21 01:53:23;;;;;;;60.80;29.52;;;;;;;-0.98;73.79;101170.20;2222295;78;31222;-67
2020/12/21 01:56:25;;;;;;;49.33;24.02;;;;;;;-0.99;73.79;101165.40;2225703;80;33186;-67
2020/12/21 01:59:28;;;;;;;58.42;28.35;;;;;;;-1.00;73.87;101170.66;2204147;79;30541;-67
2020/12/21 02:02:30;;;;;;;52.03;26.57;;;;;;;-1.00;73.82;101175.91;2227787;79;27677;-67
2020/12/21 02:05:33;;;;;;;52.13;27.73;;;;;;;-1.01;73.82;101170.20;2212153;79;29814;-67
2020/12/21 02:08:35;;;;;;;49.42;23.80;;;;;;;-1.02;73.83;101170.61;2212138;79;31142;-67
2020/12/21 02:11:42;;;;;;;48.35;25.95;;;;;;;-1.02;73.87;101177.63;2227688;79;33097;-67
2020/12/21 02:14:44;;;;;;;47.90;22.87;;;;;;;-1.03;73.71;101177.19;2227978;79;29161;-63
2020/12/21 02:17:46;;;;;;;41.23;22.27;;;;;;;-1.05;73.76;101179.77;2224918;79;27759;-68
2020/12/21 02:20:48;;;;;;;42.80;21.97;;;;;;;-1.06;73.70;101184.58;2225228;79;29826;-64
2020/12/21 02:23:50;;;;;;;47.50;22.37;;;;;;;-1.08;73.68;101183.26;2223088;79;32273;-67
2020/12/21 02:26:52;;;;;;;36.88;21.50;;;;;;;-1.07;73.62;101180.19;2187623;81;33636;-68
2020/12/21 02:29:55;;;;;;;41.92;22.00;;;;;;;-1.08;73.64;101182.39;2211372;80;29168;-66
2020/12/21 02:32:59;;;;;;;41.08;21.23;;;;;;;-1.07;73.85;101178.45;2143953;80;27792;-67
2020/12/21 02:36:01;;;;;;;39.18;20.97;;;;;;;-1.05;73.91;101180.22;2202260;79;29690;-66
2020/12/21 02:39:04;;;;;;;38.53;20.35;;;;;;;-1.03;73.96;101179.36;2219103;79;31136;-68
2020/12/21 02:42:09;;;;;;;37.30;20.20;;;;;;;-0.99;74.05;101188.20;2196110;79;33116;-68
2020/12/21 02:45:14;;;;;;;37.80;20.55;;;;;;;-0.93;74.23;101185.63;2206926;79;28981;-67
2020/12/21 02:48:16;;;;;;;36.53;20.35;;;;;;;-0.85;74.52;101181.77;2188354;81;27846;-68
2020/12/21 02:51:19;;;;;;;38.20;20.35;;;;;;;-0.79;74.54;101177.45;2190941;80;28805;-68
2020/12/21 02:54:22;;;;;;;38.90;21.75;;;;;;;-0.71;74.71;101174.05;2206867;80;32202;-65
2020/12/21 02:57:24;;;;;;;45.60;20.08;;;;;;;-0.63;74.90;101174.58;2217953;79;34036;-66
2020/12/21 03:00:27;;;;;;;43.17;24.25;;;;;;;-0.54;75.01;101178.16;2236674;79;29202;-65
2020/12/21 03:03:33;;;;;;;40.05;21.75;;;;;;;-0.44;75.17;101181.77;2206888;80;27251;-66
2020/12/21 03:06:40;;;;;;;44.95;22.73;;;;;;;-0.34;75.28;101177.06;2208963;79;27681;-66
2020/12/21 03:09:44;;;;;;;45.63;23.32;;;;;;;-0.24;75.38;101164.41;2184019;80;31142;-68
2020/12/21 03:12:46;;;;;;;41.13;21.27;;;;;;;-0.14;75.52;101154.84;2206722;80;33110;-67
2020/12/21 03:15:48;;;;;;;43.45;22.45;;;;;;;-0.04;75.60;101143.95;2207945;79;29156;-69
2020/12/21 03:18:51;;;;;;;42.50;21.62;;;;;;;0.06;75.57;101147.54;2207110;80;27709;-67
2020/12/21 03:21:53;;;;;;;42.53;21.60;;;;;;;0.15;75.57;101143.64;2207079;80;29776;-68
2020/12/21 03:24:57;;;;;;;41.05;21.87;;;;;;;0.20;75.70;101145.88;2207062;80;30343;-69
2020/12/21 03:28:13;;;;;;;51.33;24.57;;;;;;;0.31;75.82;101153.86;2211967;79;34037;-69
2020/12/21 03:31:20;;;;;;;51.08;26.20;;;;;;;0.42;75.77;101160.49;2246621;79;27667;-68
2020/12/21 03:34:40;;;;;;;52.43;29.30;;;;;;;0.51;75.79;101154.39;2235751;79;27648;-68
2020/12/21 03:37:57;;;;;;;50.92;27.05;;;;;;;0.60;75.94;101143.47;2209236;79;27685;-69
2020/12/21 03:41:01;;;;;;;50.55;27.82;;;;;;;0.73;76.04;101141.78;2245633;79;31000;-68
2020/12/21 03:44:03;;;;;;;51.13;28.67;;;;;;;0.83;76.06;101143.16;2246305;79;33196;-69
2020/12/21 03:47:06;;;;;;;44.67;24.52;;;;;;;0.90;76.02;101141.86;2238324;79;29164;-68
2020/12/21 03:50:08;;;;;;;47.05;24.05;;;;;;;0.97;76.01;101141.87;2207274;80;27788;-68
2020/12/21 03:53:11;;;;;;;50.85;25.82;;;;;;;1.02;75.93;101143.64;2210844;79;29873;-68
2020/12/21 03:56:13;;;;;;;60.48;31.87;;;;;;;1.11;75.93;101144.11;2213340;79;31570;-68
2020/12/21 03:59:16;;;;;;;71.35;31.90;;;;;;;1.17;75.98;101145.87;2246595;79;33141;-67
2020/12/21 04:02:18;;;;;;;70.03;34.58;;;;;;;1.24;76.01;101143.72;2225345;79;29204;-68
2020/12/21 04:05:20;;;;;;;82.42;37.67;;;;;;;1.32;76.09;101146.38;2236219;79;27722;-69
2020/12/21 04:08:23;;;;;;;63.73;33.02;;;;;;;1.38;76.05;101147.72;2207200;79;28852;-70
2020/12/21 04:11:26;;;;;;;66.17;35.33;;;;;;;1.43;76.06;101151.22;2224413;78;31188;-69
2020/12/21 04:14:28;;;;;;;75.37;38.28;;;;;;;1.47;76.09;101145.08;2207030;80;33132;-67
2020/12/21 04:17:31;;;;;;;73.28;34.20;;;;;;;1.53;76.10;101144.20;2207061;80;28448;-67
2020/12/21 04:20:33;;;;;;;61.95;31.23;;;;;;;1.55;76.12;101134.98;2206990;80;27658;-66
2020/12/21 04:23:35;;;;;;;51.77;28.05;;;;;;;1.60;76.15;101134.52;2207157;80;29705;-67
2020/12/21 04:26:37;;;;;;;56.75;27.15;;;;;;;1.64;76.15;101139.84;2207075;80;31939;-67
2020/12/21 04:29:39;;;;;;;52.90;27.93;;;;;;;1.69;76.03;101143.80;2206796;79;33101;-66
2020/12/21 04:32:42;;;;;;;53.92;26.85;;;;;;;1.74;76.01;101142.47;2206839;80;29144;-67
2020/12/21 04:35:44;;;;;;;52.53;28.60;;;;;;;1.79;76.09;101145.55;2218129;77;27908;-67
2020/12/21 04:38:46;;;;;;;58.23;30.60;;;;;;;1.85;76.13;101143.34;2209842;79;29810;-68
2020/12/21 04:41:57;;;;;;;59.83;31.35;;;;;;;1.90;76.06;101145.55;2206949;80;32520;-67
2020/12/21 04:44:59;;;;;;;58.08;29.80;;;;;;;1.94;76.08;101145.10;2222501;79;33122;-67
2020/12/21 04:48:03;;;;;;;60.20;32.70;;;;;;;1.96;76.08;101142.92;2246465;79;29279;-68
2020/12/21 04:51:07;;;;;;;63.95;31.85;;;;;;;1.99;76.13;101146.45;2246015;79;27652;-67
2020/12/21 04:54:09;;;;;;;44.40;24.98;;;;;;;2.00;76.09;101150.82;2254555;78;28816;-68
2020/12/21 04:57:12;;;;;;;47.10;23.67;;;;;;;2.03;76.08;101149.50;2256429;78;31135;-67
2020/12/21 05:00:14;;;;;;;34.85;19.67;;;;;;;2.04;76.07;101142.91;2256037;78;33067;-65
2020/12/21 05:03:16;;;;;;;39.42;21.62;;;;;;;2.09;76.09;101146.41;2256301;78;29366;-66
2020/12/21 05:06:19;;;;;;;38.38;23.10;;;;;;;2.14;76.03;101143.79;2219979;78;27701;-66
2020/12/21 05:09:22;;;;;;;44.48;24.63;;;;;;;2.19;76.04;101147.74;2216293;78;29684;-67
2020/12/21 05:12:25;;;;;;;45.03;24.37;;;;;;;2.22;76.03;101148.61;2216263;80;31143;-67
2020/12/21 05:15:27;;;;;;;43.75;23.75;;;;;;;2.26;76.06;101146.83;2215794;80;33187;-67
2020/12/21 05:18:34;;;;;;;34.10;20.92;;;;;;;2.28;75.98;101151.68;2216176;80;29164;-66
2020/12/21 05:21:37;;;;;;;35.52;21.85;;;;;;;2.29;75.94;101145.52;2216050;80;27613;-64
2020/12/21 05:24:41;;;;;;;34.60;21.50;;;;;;;2.32;75.93;101152.58;2216304;79;28831;-65
2020/12/21 05:27:44;;;;;;;31.87;20.37;;;;;;;2.32;75.88;101160.51;2216413;80;31092;-65
2020/12/21 05:34:12;;;;;;;30.80;18.73;;;;;;;2.34;75.87;101164.91;2235447;79;27733;-66
2020/12/21 05:37:18;;;;;;;45.28;25.57;;;;;;;2.31;75.98;101154.78;2220357;79;27625;-66
2020/12/21 05:40:26;;;;;;;37.15;21.50;;;;;;;2.36;75.88;101152.56;2195451;79;29779;-66
2020/12/21 05:46:45;;;;;;;36.40;21.77;;;;;;;2.51;75.94;101152.95;2286872;77;27586;-65
2020/12/21 05:50:03;;;;;;;41.30;24.18;;;;;;;2.50;75.79;101152.52;2232908;78;27578;-64
2020/12/21 05:53:06;;;;;;;40.35;23.92;;;;;;;2.50;75.65;101159.13;2219699;80;29810;-66
2020/12/21 05:56:10;;;;;;;42.55;23.62;;;;;;;2.50;75.68;101160.45;2219604;80;31129;-66
2020/12/21 05:59:15;;;;;;;39.83;23.95;;;;;;;2.50;75.63;101163.55;2219823;80;34044;-65
2020/12/21 06:02:19;;;;;;;29.33;17.07;;;;;;;2.53;75.72;101169.70;2189101;80;28687;-66
2020/12/21 06:05:23;;;;;;;37.33;23.20;;;;;;;2.56;75.89;101168.83;2219890;78;27755;-66
2020/12/21 06:08:28;;;;;;;36.93;21.65;;;;;;;2.58;75.77;101164.39;2219777;78;28790;-65
2020/12/21 06:11:39;;;;;;;26.20;15.58;;;;;;;2.60;75.77;101169.24;2225722;79;31142;-65
2020/12/21 06:14:42;;;;;;;41.25;20.10;;;;;;;2.61;75.84;101171.00;2219586;79;34047;-66
2020/12/21 06:17:45;;;;;;;35.15;20.57;;;;;;;2.67;75.93;101175.39;2219712;80;29879;-65
2020/12/21 06:20:48;;;;;;;43.90;23.83;;;;;;;2.73;75.83;101183.33;2219725;79;27750;-65
2020/12/21 06:23:50;;;;;;;30.62;20.25;;;;;;;2.77;75.84;101181.54;2219345;79;28087;-65
2020/12/21 06:26:54;;;;;;;34.20;21.68;;;;;;;2.80;75.85;101187.73;2219364;80;31191;-64
2020/12/21 06:30:00;;;;;;;41.02;24.92;;;;;;;2.84;75.87;101188.12;2219582;78;33168;-64
2020/12/21 06:33:05;;;;;;;35.60;22.15;;;;;;;2.88;75.83;101194.31;2219729;79;28868;-64
2020/12/21 06:36:08;;;;;;;36.70;22.60;;;;;;;2.91;75.80;101197.39;2239546;78;27642;-66
2020/12/21 06:39:24;;;;;;;37.13;21.62;;;;;;;2.92;75.76;101197.36;2253050;79;28830;-66
2020/12/21 06:42:26;;;;;;;;;;;;;;;2.92;75.80;101201.34;2255053;79;31603;-66
2020/12/21 06:45:35;;;;;;;33.20;20.43;;;;;;;2.94;75.83;101196.06;2253097;79;35531;-66
2020/12/21 06:48:37;;;;;;;36.80;20.48;;;;;;;2.92;75.80;101196.05;2254282;79;28848;-64
2020/12/21 06:51:47;;;;;;;31.25;18.02;;;;;;;2.93;75.78;101203.56;2254520;79;27586;-66
2020/12/21 06:54:52;;;;;;;39.30;23.32;;;;;;;2.95;75.79;101197.36;2254415;79;29316;-66
2020/12/21 06:57:55;;;;;;;;;;;;;;;2.96;75.72;101188.53;2256505;79;31097;-66
2020/12/21 07:00:57;;;;;;;94.40;44.55;;;;;;;2.98;75.68;101194.70;2256002;78;33124;-65
2020/12/21 07:04:02;;;;;;;170.70;71.62;;;;;;;3.01;75.92;101192.05;2259476;78;28842;-66
2020/12/21 07:07:06;;;;;;;149.13;65.20;;;;;;;3.08;75.93;101198.20;2235588;78;27508;-66
2020/12/21 07:10:13;;;;;;;132.20;58.68;;;;;;;3.12;75.87;101197.31;2226071;79;29696;-66
2020/12/21 07:13:16;;;;;;;174.75;77.15;;;;;;;3.17;75.86;101195.96;2225770;80;32150;-66
2020/12/21 07:16:20;;;;;;;184.50;81.90;;;;;;;3.21;75.85;101197.72;2232021;78;33165;-66
2020/12/21 07:19:22;;;;;;;141.05;68.12;;;;;;;3.27;75.85;101186.21;2259773;78;30099;-66
2020/12/21 07:22:25;;;;;;;88.27;43.25;;;;;;;3.30;75.73;101190.17;2259785;78;27775;-67
2020/12/21 07:25:28;;;;;;;74.47;35.43;;;;;;;3.33;75.73;101195.00;2259698;78;28802;-67
2020/12/21 07:28:31;;;;;;;46.00;25.02;;;;;;;3.39;75.78;101202.02;2259280;78;31330;-67
2020/12/21 07:31:35;;;;;;;39.58;24.37;;;;;;;3.45;75.73;101200.69;2259629;78;33090;-64
2020/12/21 07:34:40;;;;;;;45.65;25.02;;;;;;;3.50;75.73;101197.54;2259517;78;28842;-69
2020/12/21 07:37:42;;;;;;;42.83;24.40;;;;;;;3.58;75.71;101202.80;2253832;78;27518;-68
2020/12/21 07:40:48;;;;;;;84.97;49.63;;;;;;;3.65;75.73;101197.91;2255898;78;28821;-67
2020/12/21 07:44:01;;;;;;;96.70;51.93;;;;;;;3.70;75.64;101197.86;2258952;78;32120;-68
2020/12/21 07:47:10;;;;;;;74.95;46.92;;;;;;;3.74;75.57;101203.59;2249235;78;33115;-67
2020/12/21 07:50:13;;;;;;;115.10;69.10;;;;;;;3.73;75.25;101205.80;2216365;79;28913;-66
2020/12/21 07:53:15;;;;;;;73.95;45.25;;;;;;;3.69;75.03;101200.08;2208905;79;27621;-66
2020/12/21 07:56:18;;;;;;;75.37;41.53;;;;;;;3.68;75.07;101204.08;2211913;78;28812;-64
2020/12/21 07:59:21;;;;;;;74.62;43.63;;;;;;;3.71;75.33;101204.93;2208425;80;32032;-64
2020/12/21 08:02:25;;;;;;;72.82;43.08;;;;;;;3.75;75.31;101203.13;2208538;80;33949;-67
2020/12/21 08:05:28;;;;;;;61.85;34.45;;;;;;;3.77;75.31;101210.20;2232045;79;28885;-67
2020/12/21 08:08:45;;;;;;;;;;;;;;;;;;;;;
2020/12/21 08:12:13;;;;;;;65.57;38.47;;;;;;;3.88;74.94;101196.88;2233991;79;27705;-67
2020/12/21 08:15:20;;;;;;;48.92;28.12;;;;;;;3.88;74.93;101190.67;2164245;82;27714;-68
2020/12/21 08:18:24;;;;;;;46.80;27.05;;;;;;;3.90;74.85;101199.50;2126935;82;30082;-68
2020/12/21 08:21:30;;;;;;;44.65;27.45;;;;;;;3.93;74.98;101195.05;2122007;83;31619;-67
2020/12/21 08:24:33;;;;;;;;;;;;;;;4.00;74.95;101197.66;2124086;83;33107;-66
2020/12/21 08:27:51;;;;;;;50.67;31.73;;;;;;;4.05;75.13;101195.41;2121860;83;28724;-66
2020/12/21 08:31:07;;;;;;;60.55;37.83;;;;;;;4.09;75.00;101197.58;2121916;83;27697;-67
2020/12/21 08:34:24;;;;;;;70.43;44.00;;;;;;;4.18;74.88;101203.25;2214599;79;27769;-65
2020/12/21 08:37:27;;;;;;;93.35;61.88;;;;;;;4.17;74.86;101203.71;2098138;84;27709;-66
2020/12/21 08:40:30;;;;;;;69.67;42.17;;;;;;;4.17;74.66;101210.34;2103676;84;28835;-65
2020/12/21 08:43:32;;;;;;;55.45;36.05;;;;;;;4.21;74.92;101216.48;2102996;84;31157;-66
2020/12/21 08:46:34;;;;;;;53.87;35.17;;;;;;;4.28;75.03;101223.52;2103457;84;33214;-65
2020/12/21 08:49:36;;;;;;;47.17;28.83;;;;;;;4.32;75.04;101211.95;2103499;84;28552;-65
2020/12/21 08:52:39;;;;;;;46.28;27.02;;;;;;;4.39;75.10;101214.11;2103806;84;27723;-66
2020/12/21 08:55:42;;;;;;;47.08;26.68;;;;;;;4.46;75.07;101225.57;2181635;79;28836;-65
2020/12/21 08:58:44;;;;;;;47.20;25.32;;;;;;;4.52;75.15;101226.39;2228403;79;31185;-65
2020/12/21 09:01:47;;;;;;;53.05;24.95;;;;;;;4.61;75.08;101218.78;2227945;79;32977;-65
2020/12/21 09:04:50;;;;;;;48.13;21.33;;;;;;;4.67;75.05;101217.84;2234042;78;29788;-64
2020/12/21 09:07:53;;;;;;;47.23;23.42;;;;;;;4.72;74.91;101217.32;2275899;78;27904;-65
2020/12/21 09:10:56;;;;;;;45.78;24.70;;;;;;;4.80;74.90;101218.14;2179334;81;29879;-64
2020/12/21 09:13:59;;;;;;;50.65;30.80;;;;;;;4.87;74.80;101218.94;2166633;80;31142;-63
2020/12/21 09:17:01;;;;;;;44.53;24.98;;;;;;;4.91;74.89;101224.66;2122317;81;33991;-64
2020/12/21 09:20:05;;;;;;;49.85;26.02;;;;;;;4.98;74.75;101232.11;2179395;81;28864;-65
2020/12/21 09:23:07;;;;;;;48.30;26.15;;;;;;;4.96;74.59;101232.14;2179558;81;27682;-65
2020/12/21 09:26:11;;;;;;;53.90;31.25;;;;;;;4.98;74.53;101234.77;2179140;81;28828;-65
2020/12/21 09:29:13;;;;;;;50.85;27.75;;;;;;;4.97;74.16;101238.31;2179497;81;32124;-64
2020/12/21 09:32:16;;;;;;;48.28;25.55;;;;;;;4.93;74.12;101234.81;2175400;80;33116;-64
2020/12/21 09:35:18;;;;;;;49.18;26.00;;;;;;;4.92;74.09;101234.39;2157940;82;28936;-62
2020/12/21 09:38:21;;;;;;;55.52;29.92;;;;;;;4.88;73.77;101227.80;2158141;82;27814;-65
2020/12/21 09:41:24;;;;;;;54.40;29.92;;;;;;;4.85;73.85;101233.58;2149383;81;28797;-64
2020/12/21 09:44:27;;;;;;;51.63;29.90;;;;;;;4.86;73.90;101226.48;2173597;81;32101;-63
2020/12/21 09:47:30;;;;;;;48.45;29.23;;;;;;;4.88;74.23;101225.15;2173351;81;32894;-63
2020/12/21 09:50:32;;;;;;;56.02;31.55;;;;;;;4.95;74.36;101229.48;2173221;81;29301;-66
2020/12/21 09:53:35;;;;;;;56.45;29.98;;;;;;;5.04;74.42;101224.08;2173191;81;27587;-66
2020/12/21 09:56:38;;;;;;;57.90;34.03;;;;;;;5.11;74.37;101229.73;2173449;81;28934;-67
2020/12/21 09:59:43;;;;;;;107.58;56.18;;;;;;;5.20;74.36;101225.22;2173270;81;31091;-66
2020/12/21 10:02:56;;;;;;;101.80;56.13;;;;;;;5.26;74.35;101227.34;2173332;81;33150;-64
2020/12/21 10:06:01;;;;;;;92.02;51.70;;;;;;;5.29;74.10;101219.34;2148894;82;29978;-67
2020/12/21 10:09:13;;;;;;;78.60;40.60;;;;;;;5.36;74.01;101217.91;2248472;78;27787;-65
2020/12/21 10:12:16;;;;;;;66.07;33.63;;;;;;;5.32;74.00;101225.92;2228686;79;27700;-67
2020/12/21 10:15:20;;;;;;;56.53;31.45;;;;;;;5.35;74.02;101218.81;2228797;79;28828;-66
2020/12/21 10:18:27;;;;;;;54.27;31.23;;;;;;;5.41;74.22;101228.05;2228824;78;27723;-66
2020/12/21 10:21:30;;;;;;;;;;;;;;;5.46;74.23;101219.11;2231125;79;33957;-64
2020/12/21 10:24:32;;;;;;;62.60;32.23;;;;;;;5.52;74.05;101221.26;2228209;79;28616;-66
2020/12/21 10:27:34;;;;;;;56.68;30.00;;;;;;;5.56;73.89;101220.30;2228472;79;27623;-67
2020/12/21 10:30:39;;;;;;;65.20;31.52;;;;;;;5.62;73.84;101216.23;2228709;79;29752;-66
2020/12/21 10:33:41;;;;;;;56.10;30.27;;;;;;;5.67;73.87;101209.52;2228294;79;31190;-67
2020/12/21 10:36:43;;;;;;;59.70;30.77;;;;;;;5.74;73.67;101212.52;2228038;79;33118;-67
2020/12/21 10:39:45;;;;;;;55.25;31.87;;;;;;;5.81;73.49;101204.00;2195412;79;29761;-66
2020/12/21 10:42:47;;;;;;;64.55;34.25;;;;;;;5.77;73.04;101209.83;2235677;79;27753;-68
2020/12/21 10:45:50;;;;;;;58.63;35.58;;;;;;;5.76;73.16;101208.93;2204914;79;28811;-65
2020/12/21 10:48:54;;;;;;;64.10;35.83;;;;;;;5.77;73.29;101204.51;2189484;81;31351;-67
2020/12/21 10:51:58;;;;;;;76.30;45.35;;;;;;;5.81;73.22;101210.18;2189384;81;33111;-68
2020/12/21 10:55:00;;;;;;;76.10;44.00;;;;;;;5.89;73.42;101201.66;2189691;81;28966;-69
2020/12/21 10:58:03;;;;;;;69.87;40.12;;;;;;;5.99;73.51;101194.41;2189556;81;27692;-68
2020/12/21 11:01:06;;;;;;;73.67;43.58;;;;;;;6.08;73.53;101195.61;2189174;79;28817;-69
2020/12/21 11:04:08;;;;;;;60.48;34.53;;;;;;;6.17;73.40;101198.56;2189488;81;31634;-67
2020/12/21 11:07:10;;;;;;;64.17;37.88;;;;;;;6.26;73.28;101201.99;2155216;80;34179;-68
2020/12/21 11:10:14;;;;;;;70.72;36.60;;;;;;;6.37;73.35;101202.67;2204541;80;28865;-70
2020/12/21 11:13:16;;;;;;;61.50;35.28;;;;;;;6.48;73.16;101196.70;2169770;82;27662;-64
2020/12/21 11:16:19;;;;;;;67.32;37.58;;;;;;;6.57;73.06;101195.66;2214560;80;29862;-64
2020/12/21 11:19:21;;;;;;;57.58;33.85;;;;;;;6.64;72.97;101199.08;2217817;80;30467;-69
2020/12/21 11:22:24;;;;;;;56.92;35.58;;;;;;;6.68;72.62;101200.78;2217308;80;33116;-70
2020/12/21 11:25:28;;;;;;;59.10;35.10;;;;;;;6.71;72.66;101199.83;2217774;80;28109;-69
2020/12/21 11:28:31;;;;;;;64.20;34.55;;;;;;;6.75;72.62;101202.87;2217461;80;27660;-68
2020/12/21 11:31:36;;;;;;;54.58;31.50;;;;;;;6.74;72.34;101198.45;2217475;80;28762;-68
2020/12/21 11:34:39;;;;;;;61.23;33.60;;;;;;;6.71;71.85;101189.18;2224938;80;31183;-67
2020/12/21 11:37:41;;;;;;;56.28;31.97;;;;;;;6.59;71.84;101180.53;2225008;80;33059;-69
2020/12/21 11:40:44;;;;;;;60.48;34.60;;;;;;;6.52;71.81;101177.58;2224938;80;28908;-70
2020/12/21 11:43:46;;;;;;;70.03;38.75;;;;;;;6.46;71.82;101181.67;2224194;80;27739;-68
2020/12/21 11:46:48;;;;;;;67.60;37.90;;;;;;;6.38;72.12;101168.50;2217484;80;29662;-70
2020/12/21 11:49:51;;;;;;;62.98;36.70;;;;;;;6.52;72.25;101188.23;2217299;80;32128;-68
2020/12/21 11:52:53;;;;;;;57.35;33.85;;;;;;;6.62;72.29;101180.95;2217295;80;33892;-71
2020/12/21 11:55:56;;;;;;;58.68;34.00;;;;;;;6.69;72.27;101176.80;2217325;80;28853;-70
2020/12/21 11:58:59;;;;;;;69.85;38.40;;;;;;;6.78;72.42;101174.42;2168937;82;27655;-71
2020/12/21 12:02:03;;;;;;;58.58;33.23;;;;;;;6.88;72.28;101171.55;2208765;80;28706;-70
2020/12/21 12:05:12;;;;;;;67.45;35.08;;;;;;;6.92;71.97;101167.93;2149610;80;31621;-70
2020/12/21 12:08:14;;;;;;;70.22;35.85;;;;;;;6.98;71.99;101163.35;2206143;80;34033;-71
2020/12/21 12:11:22;;;;;;;62.95;35.68;;;;;;;7.00;71.49;101168.63;2206725;80;29802;-71
2020/12/21 12:14:24;;;;;;;61.00;34.90;;;;;;;7.03;71.83;101167.71;2207213;80;27583;-71
2020/12/21 12:17:28;;;;;;;54.88;31.65;;;;;;;7.10;71.90;101160.89;2175707;80;28814;-70
2020/12/21 12:20:30;;;;;;;57.93;32.88;;;;;;;7.09;71.26;101163.13;2168362;82;31122;-71
2020/12/21 12:23:42;;;;;;;56.13;32.10;;;;;;;7.05;71.35;101167.20;2168847;82;33563;-69
2020/12/21 12:26:53;;;;;;;64.85;32.03;;;;;;;7.08;71.68;101165.80;2165581;82;27622;-71
2020/12/21 12:29:56;;;;;;;52.75;30.68;;;;;;;7.13;71.86;101158.60;2208832;80;27669;-71
2020/12/21 12:32:58;;;;;;;65.42;37.78;;;;;;;7.20;71.66;101166.01;2165881;82;29711;-70
2020/12/21 12:36:01;;;;;;;60.63;32.05;;;;;;;7.26;71.83;101165.89;2211688;80;31135;-71
2020/12/21 12:39:05;;;;;;;55.45;30.12;;;;;;;7.27;71.82;101164.50;2217386;80;33930;-69
2020/12/21 12:42:11;;;;;;;56.35;30.85;;;;;;;7.32;71.56;101167.53;2217319;80;28846;-71
2020/12/21 12:45:13;;;;;;;62.90;31.17;;;;;;;7.23;71.31;101170.80;2214594;80;27621;-67
2020/12/21 12:48:17;;;;;;;56.33;29.60;;;;;;;7.17;71.56;101170.95;2208567;80;28813;-70
2020/12/21 12:51:19;;;;;;;54.23;29.55;;;;;;;7.13;71.76;101166.59;2208170;80;31141;-69
2020/12/21 12:54:22;;;;;;;57.55;27.98;;;;;;;7.03;71.73;101169.91;2208074;80;33128;-69
2020/12/21 12:57:24;;;;;;;54.20;27.42;;;;;;;6.95;71.66;101169.20;2202365;79;28862;-70
2020/12/21 13:00:28;;;;;;;49.20;28.98;;;;;;;6.88;71.97;101171.55;2217222;80;27582;-69
2020/12/21 13:03:30;;;;;;;49.67;26.60;;;;;;;6.83;72.02;101168.99;2217040;80;28904;-70
2020/12/21 13:06:33;;;;;;;44.83;26.23;;;;;;;6.80;72.13;101164.58;2219972;80;31124;-69
2020/12/21 13:09:35;;;;;;;46.98;26.27;;;;;;;6.74;72.08;101167.39;2224256;79;33176;-67
2020/12/21 13:12:38;;;;;;;53.90;26.30;;;;;;;6.76;72.51;101164.25;2224769;80;28057;-69
2020/12/21 13:15:40;;;;;;;46.60;27.27;;;;;;;6.81;72.70;101155.69;2220895;80;27738;-70
2020/12/21 13:18:42;;;;;;;43.85;26.17;;;;;;;6.89;72.72;101151.53;2205917;80;29817;-68
2020/12/21 13:21:45;;;;;;;47.08;24.30;;;;;;;6.92;72.42;101150.61;2206429;80;31120;-69
2020/12/21 13:24:48;;;;;;;47.33;24.05;;;;;;;6.94;72.48;101148.33;2217191;79;33130;-69
2020/12/21 13:27:51;;;;;;;48.42;22.95;;;;;;;6.94;72.42;101144.34;2249316;78;29827;-69
2020/12/21 13:30:54;;;;;;;43.95;22.42;;;;;;;6.90;72.20;101133.31;2268681;78;27725;-68
2020/12/21 13:33:56;;;;;;;41.02;21.20;;;;;;;6.83;72.12;101136.56;2268323;78;28754;-70
2020/12/21 13:36:59;;;;;;;68.95;28.65;;;;;;;6.76;72.11;101138.05;2220468;78;31222;-70
2020/12/21 13:40:04;;;;;;;44.63;23.10;;;;;;;6.68;72.24;101135.55;2216546;80;33105;-69
2020/12/21 13:43:06;;;;;;;38.75;22.73;;;;;;;6.64;72.26;101137.40;2217210;80;28857;-69
2020/12/21 13:46:09;;;;;;;40.65;22.13;;;;;;;6.60;72.37;101141.48;2217144;80;27714;-70
2020/12/21 13:49:16;;;;;;;37.03;21.57;;;;;;;6.52;72.29;101140.31;2223725;80;28819;-69
2020/12/21 13:52:19;;;;;;;37.53;22.62;;;;;;;6.41;72.31;101139.18;2221340;79;31398;-69
2020/12/21 13:55:22;;;;;;;38.95;22.00;;;;;;;6.32;72.38;101135.34;2168481;82;33539;-69
2020/12/21 13:58:25;;;;;;;40.10;23.83;;;;;;;6.28;72.48;101129.20;2213527;80;29900;-69
2020/12/21 14:01:28;;;;;;;36.28;21.00;;;;;;;6.22;72.51;101130.64;2217282;80;27738;-69
2020/12/21 14:04:31;;;;;;;36.73;21.20;;;;;;;6.18;72.50;101123.17;2217178;80;28993;-69
2020/12/21 14:07:33;;;;;;;36.30;21.95;;;;;;;6.13;72.45;101124.16;2267822;78;31149;-69
2020/12/21 14:10:38;;;;;;;35.58;20.82;;;;;;;6.08;72.53;101118.47;2154394;79;33918;-69